createdAt,value
2022-12-04T00:01:36.634Z,1.66
2022-12-04T00:06:40.358Z,1.67
2022-12-04T00:11:43.665Z,1.70
2022-12-04T00:16:47.109Z,1.72
2022-12-04T00:21:51.620Z,1.70
2022-12-04T00:26:55.340Z,1.72
2022-12-04T00:31:58.745Z,1.74
2022-12-04T00:37:02.271Z,1.74
2022-12-04T00:42:05.785Z,1.75
2022-12-04T00:47:09.095Z,1.75
2022-12-04T00:52:12.507Z,1.75
2022-12-04T00:57:15.921Z,1.73
2022-12-04T01:02:19.435Z,1.72
2022-12-04T01:07:22.755Z,1.76
2022-12-04T01:12:26.262Z,1.77
2022-12-04T01:17:29.880Z,1.79
2022-12-04T01:22:33.397Z,1.77
2022-12-04T01:27:36.707Z,1.78
2022-12-04T01:32:40.228Z,1.76
2022-12-04T01:37:43.737Z,1.80
2022-12-04T01:42:52.681Z,1.83
2022-12-04T01:48:19.747Z,1.86
2022-12-04T01:53:23.288Z,1.88
2022-12-04T01:58:32.515Z,1.83
2022-12-04T02:03:36.343Z,1.79
2022-12-04T02:08:39.956Z,1.75
2022-12-04T02:14:04.769Z,1.73
2022-12-04T02:19:10.742Z,1.77
2022-12-04T02:24:50.134Z,1.79
2022-12-04T02:30:04.468Z,1.79
2022-12-04T02:35:10.956Z,1.78
2022-12-04T02:40:21.841Z,1.79
2022-12-04T02:45:31.679Z,1.83
2022-12-04T02:50:39.709Z,1.84
2022-12-04T02:55:48.771Z,1.86
2022-12-04T03:00:54.735Z,1.86
2022-12-04T03:06:07.389Z,1.88
2022-12-04T03:11:11.297Z,1.90
2022-12-04T03:16:23.691Z,1.91
2022-12-04T03:21:33.590Z,1.88
2022-12-04T03:26:45.911Z,1.82
2022-12-04T03:32:06.730Z,1.78
2022-12-04T03:37:20.589Z,1.77
2022-12-04T03:42:28.413Z,1.76
2022-12-04T03:47:43.493Z,1.78
2022-12-04T03:53:03.905Z,1.82
2022-12-04T03:58:14.075Z,1.84
2022-12-04T04:03:23.221Z,1.82
2022-12-04T04:08:34.260Z,1.79
2022-12-04T04:14:03.842Z,1.80
2022-12-04T04:19:31.232Z,1.83
2022-12-04T04:24:45.691Z,1.86
2022-12-04T04:29:52.633Z,1.85
2022-12-04T04:35:05.420Z,1.80
2022-12-04T04:40:22.143Z,1.75
2022-12-04T04:45:42.862Z,1.71
2022-12-04T04:50:46.786Z,1.68
2022-12-04T04:55:50.456Z,1.67
2022-12-04T05:00:59.556Z,1.64
2022-12-04T05:06:03.078Z,1.60
2022-12-04T05:11:06.890Z,1.58
2022-12-04T05:16:15.404Z,1.60
2022-12-04T05:21:18.734Z,1.61
2022-12-04T05:26:22.048Z,1.58
2022-12-04T05:31:25.594Z,1.59
2022-12-04T05:36:29.078Z,1.60
2022-12-04T05:41:32.488Z,1.61
2022-12-04T05:46:35.954Z,1.61
2022-12-04T05:51:39.521Z,1.59
2022-12-04T05:56:43.138Z,1.58
2022-12-04T06:01:46.539Z,1.60
2022-12-04T06:06:49.965Z,1.61
2022-12-04T06:11:57.997Z,1.63
2022-12-04T06:17:01.500Z,1.68
2022-12-04T06:22:04.916Z,1.70
2022-12-04T06:32:31.812Z,1.79
2022-12-04T06:37:35.224Z,1.78
2022-12-04T06:42:38.535Z,1.76
2022-12-04T06:47:41.952Z,1.77
2022-12-04T06:52:45.400Z,1.80
2022-12-04T06:57:48.881Z,1.85
2022-12-04T07:02:52.371Z,1.87
2022-12-04T07:07:55.880Z,1.91
2022-12-04T07:12:59.425Z,1.94
2022-12-04T07:18:03.043Z,1.95
2022-12-04T07:23:07.489Z,1.96
2022-12-04T07:28:10.999Z,1.97
2022-12-04T07:33:14.516Z,2.03
2022-12-04T07:38:17.935Z,2.05
2022-12-04T07:43:21.335Z,2.10
2022-12-04T07:48:30.185Z,2.11
2022-12-04T07:53:36.558Z,2.14
2022-12-04T07:58:40.485Z,2.17
2022-12-04T08:03:48.405Z,2.21
2022-12-04T08:08:53.467Z,2.26
2022-12-04T08:14:09.023Z,2.29
2022-12-04T08:19:12.599Z,2.30
2022-12-04T08:24:17.621Z,2.34
2022-12-04T08:29:20.931Z,2.38
2022-12-04T08:34:25.371Z,2.41
2022-12-04T08:39:28.580Z,2.37
2022-12-04T08:44:32.092Z,2.37
2022-12-04T08:49:35.916Z,2.38
2022-12-04T08:54:39.638Z,2.40
2022-12-04T08:59:43.560Z,2.43
2022-12-04T09:04:47.359Z,2.48
2022-12-04T09:09:52.221Z,2.58
2022-12-04T09:14:57.106Z,2.64
2022-12-04T09:20:02.916Z,2.65
2022-12-04T09:25:08.559Z,2.73
2022-12-04T09:30:14.451Z,2.74
2022-12-04T09:35:21.068Z,2.73
2022-12-04T09:40:58.111Z,2.79
2022-12-04T09:46:13.258Z,2.82
2022-12-04T09:51:33.631Z,2.82
2022-12-04T09:56:39.248Z,2.86
2022-12-04T10:01:50.996Z,2.88
2022-12-04T10:07:39.548Z,2.92
2022-12-04T10:12:55.676Z,2.93
2022-12-04T10:18:31.605Z,2.91
2022-12-04T10:23:58.703Z,2.88
2022-12-04T10:29:10.614Z,2.85
2022-12-04T10:34:27.191Z,2.86
2022-12-04T10:39:42.093Z,2.87
2022-12-04T10:44:45.916Z,2.84
2022-12-04T10:49:52.296Z,2.77
2022-12-04T10:55:02.783Z,2.73
2022-12-04T11:00:30.016Z,2.75
2022-12-04T11:05:37.760Z,2.72
2022-12-04T11:10:44.864Z,2.69
2022-12-04T11:15:55.137Z,2.71
2022-12-04T11:21:01.519Z,2.73
2022-12-04T11:26:06.420Z,2.70
2022-12-04T11:31:16.727Z,2.68
2022-12-04T11:36:24.769Z,2.68
2022-12-04T11:41:31.479Z,2.72
2022-12-04T11:46:37.080Z,2.72
2022-12-04T11:52:02.042Z,2.70
2022-12-04T11:57:39.135Z,2.71
2022-12-04T12:03:13.911Z,2.74
2022-12-04T12:08:20.060Z,2.72
2022-12-04T12:13:49.486Z,2.72
2022-12-04T12:19:05.188Z,2.71
2022-12-04T12:24:11.466Z,2.72
2022-12-04T12:29:21.023Z,2.76
2022-12-04T12:34:37.342Z,2.80
2022-12-04T12:39:48.124Z,2.77
2022-12-04T12:45:01.983Z,2.75
2022-12-04T12:50:16.665Z,2.72
2022-12-04T12:55:33.795Z,2.73
2022-12-04T13:00:47.207Z,2.73
2022-12-04T13:05:55.066Z,2.72
2022-12-04T13:10:58.368Z,2.74
2022-12-04T13:16:14.016Z,2.76
2022-12-04T13:21:45.749Z,2.75
2022-12-04T13:27:12.814Z,2.73
2022-12-04T13:32:45.002Z,2.74
2022-12-04T13:38:11.873Z,2.74
2022-12-04T13:43:34.238Z,2.76
2022-12-04T13:48:41.220Z,2.72
2022-12-04T13:53:44.838Z,2.63
2022-12-04T13:59:04.127Z,2.56
2022-12-04T14:04:08.560Z,2.50
2022-12-04T14:09:32.046Z,2.46
2022-12-04T14:14:43.140Z,2.42
2022-12-04T14:19:53.439Z,2.35
2022-12-04T14:25:21.709Z,2.33
2022-12-04T14:30:38.620Z,2.35
2022-12-04T14:36:05.502Z,2.38
2022-12-04T14:41:08.915Z,2.34
2022-12-04T14:46:25.642Z,2.30
2022-12-04T14:51:43.694Z,2.31
2022-12-04T14:57:05.647Z,2.29
2022-12-04T15:02:13.460Z,2.33
2022-12-04T15:07:22.229Z,2.31
2022-12-04T15:12:35.662Z,2.29
2022-12-04T15:17:39.058Z,2.27
2022-12-04T15:22:43.062Z,2.21
2022-12-04T15:27:49.263Z,2.21
2022-12-04T15:32:53.906Z,2.23
2022-12-04T15:37:59.516Z,2.22
2022-12-04T15:43:17.328Z,2.22
2022-12-04T15:48:28.233Z,2.19
2022-12-04T15:53:40.362Z,2.17
2022-12-04T15:58:53.059Z,2.11
2022-12-04T16:03:56.734Z,2.12
2022-12-04T16:09:13.405Z,2.10
2022-12-04T16:14:18.720Z,2.06
2022-12-04T16:19:30.370Z,2.04
2022-12-04T16:24:33.883Z,2.07
2022-12-04T16:29:37.192Z,2.04
2022-12-04T16:34:40.912Z,2.05
2022-12-04T16:39:44.732Z,2.03
2022-12-04T16:44:48.458Z,2.01
2022-12-04T16:49:52.384Z,2.00
2022-12-04T16:54:58.432Z,1.95
2022-12-04T17:00:04.435Z,1.92
2022-12-04T17:05:09.029Z,1.92
2022-12-04T17:10:15.006Z,1.91
2022-12-04T17:15:21.260Z,1.90
2022-12-04T17:20:24.841Z,1.88
2022-12-04T17:25:28.150Z,1.88
2022-12-04T17:30:35.997Z,1.90
2022-12-04T17:35:44.398Z,1.89
2022-12-04T17:40:58.937Z,1.90
2022-12-04T17:46:02.797Z,1.90
2022-12-04T17:51:17.679Z,1.87
2022-12-04T17:56:23.550Z,1.84
2022-12-04T18:01:29.249Z,1.79
2022-12-04T18:06:35.267Z,1.78
2022-12-04T18:11:40.749Z,1.86
2022-12-04T18:16:47.355Z,1.90
2022-12-04T18:21:51.880Z,1.90
2022-12-04T18:26:55.394Z,1.86
2022-12-04T18:31:58.833Z,1.82
2022-12-04T18:37:02.353Z,1.79
2022-12-04T18:42:06.145Z,1.75
2022-12-04T18:47:09.457Z,1.68
2022-12-04T18:52:12.869Z,1.65
2022-12-04T18:57:16.281Z,1.69
2022-12-04T19:02:19.764Z,1.69
2022-12-04T19:07:23.420Z,1.68
2022-12-04T19:12:26.938Z,1.68
2022-12-04T19:17:30.348Z,1.67
2022-12-04T19:22:33.656Z,1.72
2022-12-04T19:27:37.171Z,1.78
2022-12-04T19:32:40.588Z,1.79
2022-12-04T19:37:48.164Z,1.79
2022-12-04T19:42:58.204Z,1.73
2022-12-04T19:48:06.292Z,1.79
2022-12-04T19:53:11.951Z,1.78
2022-12-04T19:58:15.264Z,1.74
2022-12-04T20:03:18.685Z,1.77
2022-12-04T20:08:22.298Z,1.77
2022-12-04T20:13:25.809Z,1.80
2022-12-04T20:18:29.528Z,1.82
2022-12-04T20:23:32.840Z,1.76
2022-12-04T21:25:42.172Z,2.07
2022-12-04T21:30:45.461Z,1.94
2022-12-04T21:35:48.893Z,1.87
2022-12-04T21:40:52.305Z,1.80
2022-12-04T21:46:04.487Z,1.73
2022-12-04T21:51:26.883Z,1.70
2022-12-04T21:56:35.826Z,1.70
2022-12-04T22:01:39.508Z,1.67
2022-12-04T22:06:43.474Z,1.66
2022-12-04T22:11:46.988Z,1.61
2022-12-04T22:16:51.930Z,1.59
2022-12-04T22:21:55.452Z,1.54
2022-12-04T22:26:58.865Z,1.54
2022-12-04T22:32:02.278Z,1.51
2022-12-04T22:37:05.692Z,1.49
2022-12-04T22:42:09.107Z,1.52
2022-12-04T22:47:12.570Z,1.51
2022-12-04T22:52:16.135Z,1.47
2022-12-04T22:57:19.445Z,1.46
2022-12-04T23:02:22.861Z,1.46
2022-12-04T23:07:26.272Z,1.50
2022-12-04T23:12:30.094Z,1.56
2022-12-04T23:17:33.510Z,1.61
2022-12-04T23:22:37.026Z,1.65
2022-12-04T23:27:40.439Z,1.68
2022-12-04T23:32:43.850Z,1.71
2022-12-04T23:37:47.263Z,1.71
2022-12-04T23:42:50.586Z,1.64
2022-12-04T23:47:56.036Z,1.64
2022-12-04T23:52:59.348Z,1.66
2022-12-04T23:58:02.963Z,1.67
